[Closed] PG ATC @ Portland Intl KPDX Seattle

  • Tower and Ground available
  • Patterns accepted
  • Departures/Arrivals - RWY10R

METAR - KPDX 291053Z 13005KT 7SM -RA OVC020 03/02 A3016 RMK AO2 RAB43 SLP213 P0000 T00330022

1 Like

Still open?

Yes @Jasper :)

Why not let me make an intersection departure?

Try to lay out the title like this:

[Open] Portland Intl - KPDX [PG]

That will make it more understandable. You can tell a regular to change the title to [Closed] …

1 Like

I’m not allowing Intersection departures.

Will do.

Ok then tell me please next time. There is a command saying “no intersection departures allowed at this time” :)

1 Like